createdAt,value
2022-11-27T00:01:33.508Z,7.80
2022-11-27T00:04:00.419Z,7.80
2022-11-27T00:06:28.181Z,7.80
2022-11-27T00:08:58.620Z,7.80
2022-11-27T00:11:26.161Z,7.70
2022-11-27T00:13:52.960Z,7.70
2022-11-27T00:16:20.585Z,7.70
2022-11-27T00:18:47.392Z,7.70
2022-11-27T00:21:15.741Z,7.70
2022-11-27T00:23:42.730Z,7.70
2022-11-27T00:26:09.913Z,7.70
2022-11-27T00:28:36.787Z,7.60
2022-11-27T00:31:08.354Z,7.70
2022-11-27T00:33:35.186Z,7.60
2022-11-27T00:36:06.584Z,7.60
2022-11-27T00:38:38.531Z,7.60
2022-11-27T00:41:09.826Z,7.60
2022-11-27T00:43:44.099Z,7.50
2022-11-27T00:46:13.001Z,7.50
2022-11-27T00:48:39.930Z,7.50
2022-11-27T00:51:07.668Z,7.50
2022-11-27T00:53:34.667Z,7.50
2022-11-27T00:56:01.785Z,7.50
2022-11-27T00:58:30.214Z,7.40
2022-11-27T01:00:57.677Z,7.40
2022-11-27T01:03:24.831Z,7.40
2022-11-27T01:05:51.886Z,7.40
2022-11-27T01:08:21.574Z,7.40
2022-11-27T01:10:54.448Z,7.30
2022-11-27T01:13:29.410Z,7.30
2022-11-27T01:16:15.922Z,7.30
2022-11-27T01:18:43.392Z,7.20
2022-11-27T01:21:10.849Z,7.30
2022-11-27T01:23:37.816Z,7.20
2022-11-27T01:26:05.478Z,7.30
2022-11-27T01:28:32.964Z,7.20
2022-11-27T01:31:04.082Z,7.20
2022-11-27T01:33:30.880Z,7.10
2022-11-27T01:35:59.616Z,7.20
2022-11-27T01:38:27.450Z,7.10
2022-11-27T01:41:01.463Z,7.10
2022-11-27T01:43:42.455Z,7.10
2022-11-27T01:46:22.790Z,7.10
2022-11-27T01:48:50.635Z,7.00
2022-11-27T01:51:17.786Z,7.10
2022-11-27T01:53:44.874Z,7.00
2022-11-27T01:56:11.874Z,7.00
2022-11-27T01:58:39.326Z,7.00
2022-11-27T02:01:06.089Z,7.00
2022-11-27T02:03:34.632Z,6.90
2022-11-27T02:06:01.385Z,7.00
2022-11-27T02:08:28.122Z,6.90
2022-11-27T02:11:18.615Z,7.00
2022-11-27T02:13:50.844Z,6.90
2022-11-27T02:16:20.123Z,6.90
2022-11-27T02:18:46.872Z,6.90
2022-11-27T02:21:16.680Z,6.80
2022-11-27T02:23:55.938Z,6.80
2022-11-27T02:26:25.723Z,6.80
2022-11-27T02:29:09.335Z,6.80
2022-11-27T02:31:41.765Z,6.80
2022-11-27T02:34:35.515Z,6.80
2022-11-27T02:37:05.346Z,6.80
2022-11-27T02:39:38.613Z,6.80
2022-11-27T02:42:08.085Z,6.80
2022-11-27T02:44:37.025Z,6.70
2022-11-27T02:47:04.505Z,6.70
2022-11-27T02:49:31.774Z,6.70
2022-11-27T02:51:59.501Z,6.70
2022-11-27T02:54:28.099Z,6.70
2022-11-27T02:56:56.058Z,6.70
2022-11-27T02:59:24.084Z,6.70
2022-11-27T03:01:53.448Z,6.60
2022-11-27T03:04:25.085Z,6.60
2022-11-27T03:06:54.930Z,6.60
2022-11-27T03:09:41.872Z,6.60
2022-11-27T03:12:09.830Z,6.60
2022-11-27T03:14:38.316Z,6.60
2022-11-27T03:17:15.817Z,6.50
2022-11-27T03:19:48.331Z,6.50
2022-11-27T03:22:16.389Z,6.50
2022-11-27T03:24:43.414Z,6.50
2022-11-27T03:27:12.304Z,6.50
2022-11-27T03:29:47.722Z,6.50
2022-11-27T03:32:14.682Z,6.40
2022-11-27T03:34:42.443Z,6.40
2022-11-27T03:37:09.449Z,6.40
2022-11-27T03:39:36.701Z,6.40
2022-11-27T03:42:06.553Z,6.40
2022-11-27T03:44:48.145Z,6.40
2022-11-27T03:47:33.744Z,6.40
2022-11-27T03:50:09.675Z,6.40
2022-11-27T03:52:36.451Z,6.30
2022-11-27T03:55:09.570Z,6.30
2022-11-27T03:57:43.150Z,6.30
2022-11-27T04:00:10.374Z,6.30
2022-11-27T04:02:55.211Z,6.20
2022-11-27T04:05:22.292Z,6.20
2022-11-27T04:07:49.122Z,6.20
2022-11-27T04:10:16.002Z,6.20
2022-11-27T04:12:43.026Z,6.20
2022-11-27T04:15:10.019Z,6.20
2022-11-27T04:17:36.827Z,6.20
2022-11-27T04:20:04.518Z,6.20
2022-11-27T04:22:31.309Z,6.20
2022-11-27T04:24:58.090Z,6.10
2022-11-27T04:27:24.833Z,6.10
2022-11-27T04:29:51.641Z,6.10
2022-11-27T04:32:18.476Z,6.10
2022-11-27T04:34:45.194Z,6.10
2022-11-27T04:37:11.958Z,6.00
2022-11-27T04:39:38.724Z,6.00
2022-11-27T04:42:05.477Z,6.10
2022-11-27T04:44:32.295Z,6.00
2022-11-27T04:46:59.053Z,6.00
2022-11-27T04:49:25.814Z,6.00
2022-11-27T04:51:52.577Z,6.00
2022-11-27T04:54:19.498Z,6.00
2022-11-27T04:56:46.265Z,6.00
2022-11-27T04:59:13.002Z,6.00
2022-11-27T05:01:39.761Z,6.00
2022-11-27T05:04:06.513Z,6.00
2022-11-27T05:06:33.215Z,6.00
2022-11-27T05:09:02.132Z,6.00
2022-11-27T05:11:29.896Z,6.00
2022-11-27T05:14:17.871Z,6.00
2022-11-27T05:16:46.260Z,6.00
2022-11-27T05:19:14.246Z,6.00
2022-11-27T05:21:41.581Z,5.90
2022-11-27T05:24:08.818Z,5.90
2022-11-27T05:26:35.828Z,5.90
2022-11-27T05:29:03.040Z,5.80
2022-11-27T05:31:29.777Z,5.80
2022-11-27T05:33:56.862Z,5.80
2022-11-27T05:36:23.839Z,5.70
2022-11-27T05:38:50.544Z,5.70
2022-11-27T05:41:17.322Z,5.70
2022-11-27T05:43:44.280Z,5.70
2022-11-27T05:46:12.813Z,5.60
2022-11-27T05:48:39.628Z,5.60
2022-11-27T05:51:06.971Z,5.60
2022-11-27T05:53:34.048Z,5.60
2022-11-27T05:56:05.370Z,5.60
2022-11-27T05:58:32.375Z,5.50
2022-11-27T06:00:59.114Z,5.50
2022-11-27T06:03:26.088Z,5.50
2022-11-27T06:05:53.098Z,5.40
2022-11-27T06:08:20.095Z,5.40
2022-11-27T06:10:47.665Z,5.40
2022-11-27T06:13:14.525Z,5.40
2022-11-27T06:15:41.353Z,5.40
2022-11-27T06:18:08.337Z,5.40
2022-11-27T06:20:37.468Z,5.30
2022-11-27T06:23:06.412Z,5.40
2022-11-27T06:25:33.166Z,5.40
2022-11-27T06:27:59.897Z,5.30
2022-11-27T06:30:26.666Z,5.30
2022-11-27T06:32:53.747Z,5.20
2022-11-27T06:35:20.594Z,5.20
2022-11-27T06:37:47.394Z,5.20
2022-11-27T06:40:14.240Z,5.20
2022-11-27T06:42:40.963Z,5.10
2022-11-27T06:45:08.008Z,5.10
2022-11-27T06:47:34.802Z,5.10
2022-11-27T06:50:01.541Z,5.10
2022-11-27T06:52:28.326Z,5.10
2022-11-27T06:54:55.145Z,5.00
2022-11-27T06:57:21.840Z,5.00
2022-11-27T06:59:48.626Z,5.00
2022-11-27T07:02:15.647Z,5.00
2022-11-27T07:04:42.661Z,5.00
2022-11-27T07:07:09.684Z,5.00
2022-11-27T07:09:36.576Z,5.00
2022-11-27T07:12:04.778Z,5.00
2022-11-27T07:14:31.515Z,5.00
2022-11-27T07:16:58.314Z,5.00
2022-11-27T07:19:25.236Z,4.90
2022-11-27T07:21:52.086Z,4.80
2022-11-27T07:24:22.131Z,4.80
2022-11-27T07:26:50.050Z,4.80
2022-11-27T07:29:16.774Z,4.80
2022-11-27T07:31:43.635Z,4.80
2022-11-27T07:34:16.033Z,4.90
2022-11-27T07:36:46.810Z,4.90
2022-11-27T07:39:13.585Z,4.90
2022-11-27T07:41:40.519Z,4.90
2022-11-27T07:44:07.403Z,4.90
2022-11-27T07:46:34.307Z,4.90
2022-11-27T07:49:01.391Z,4.90
2022-11-27T07:51:28.394Z,4.90
2022-11-27T07:53:59.956Z,4.90
2022-11-27T07:56:27.882Z,4.80
2022-11-27T07:58:56.636Z,4.90
2022-11-27T08:01:27.188Z,4.80
2022-11-27T08:03:54.058Z,4.80
2022-11-27T08:06:24.968Z,4.80
2022-11-27T08:08:52.205Z,4.80
2022-11-27T08:11:19.010Z,4.90
2022-11-27T08:13:45.955Z,4.80
2022-11-27T08:16:12.764Z,4.90
2022-11-27T08:18:39.512Z,4.90
2022-11-27T08:21:07.661Z,4.90
2022-11-27T08:23:34.597Z,5.00
2022-11-27T08:26:04.375Z,5.00
2022-11-27T08:28:31.159Z,5.00
2022-11-27T08:30:58.630Z,5.10
2022-11-27T08:33:25.444Z,5.10
2022-11-27T08:35:52.316Z,5.10
2022-11-27T08:38:19.512Z,5.10
2022-11-27T08:40:56.748Z,5.10
2022-11-27T08:43:24.220Z,5.10
2022-11-27T08:45:51.212Z,5.10
2022-11-27T08:48:18.125Z,5.10
2022-11-27T08:50:45.153Z,5.10
2022-11-27T08:53:11.941Z,5.10
2022-11-27T08:55:38.954Z,5.10
2022-11-27T08:58:05.795Z,5.20
2022-11-27T09:00:33.472Z,5.20
2022-11-27T09:03:00.469Z,5.20
2022-11-27T09:05:27.911Z,5.20
2022-11-27T09:07:55.040Z,5.20
2022-11-27T09:10:22.180Z,5.20
2022-11-27T09:12:49.523Z,5.20
2022-11-27T09:15:16.330Z,5.30
2022-11-27T09:17:43.188Z,5.30
2022-11-27T09:20:10.566Z,5.30
2022-11-27T09:22:37.314Z,5.30
2022-11-27T09:25:04.404Z,5.30
2022-11-27T09:27:31.185Z,5.30
2022-11-27T09:29:58.377Z,5.40
2022-11-27T09:32:25.204Z,5.30
2022-11-27T09:34:52.369Z,5.30
2022-11-27T09:37:19.172Z,5.30
2022-11-27T09:39:45.919Z,5.30
2022-11-27T09:42:18.551Z,5.30
2022-11-27T09:44:48.215Z,5.40
2022-11-27T09:47:15.106Z,5.50
2022-11-27T09:49:45.583Z,5.50
2022-11-27T09:52:28.497Z,5.50
2022-11-27T09:54:57.679Z,5.60
2022-11-27T09:57:27.609Z,5.60
2022-11-27T09:59:54.787Z,5.70
2022-11-27T10:02:26.440Z,5.70
2022-11-27T10:07:40.606Z,5.80
2022-11-27T10:10:26.372Z,5.80
2022-11-27T10:13:13.474Z,5.90
2022-11-27T10:15:51.956Z,5.90
2022-11-27T10:18:45.097Z,5.90
2022-11-27T10:21:17.310Z,5.90
2022-11-27T10:24:02.591Z,5.90
2022-11-27T10:26:33.678Z,6.00
2022-11-27T10:29:09.434Z,6.00
2022-11-27T10:31:53.852Z,5.90
2022-11-27T10:34:40.089Z,6.00
2022-11-27T10:37:23.910Z,6.00
2022-11-27T10:40:16.289Z,6.00
2022-11-27T10:43:04.617Z,6.00
2022-11-27T10:45:54.757Z,6.10
2022-11-27T10:48:22.266Z,6.10
2022-11-27T10:50:49.112Z,6.10
2022-11-27T10:53:27.238Z,6.20
2022-11-27T10:56:05.295Z,6.20
2022-11-27T10:58:35.060Z,6.30
2022-11-27T11:01:02.986Z,6.40
2022-11-27T11:03:29.933Z,6.40
2022-11-27T11:06:19.140Z,6.40
2022-11-27T11:08:46.774Z,6.40
2022-11-27T11:11:25.022Z,6.40
2022-11-27T11:13:51.854Z,6.50
2022-11-27T11:16:24.620Z,6.50
2022-11-27T11:18:52.956Z,6.50
2022-11-27T11:21:27.947Z,6.50
2022-11-27T11:24:00.881Z,6.50
2022-11-27T11:26:29.665Z,6.60
2022-11-27T11:28:58.317Z,6.60
2022-11-27T11:31:34.327Z,6.60
2022-11-27T11:34:02.740Z,6.60
2022-11-27T11:36:30.006Z,6.60
2022-11-27T11:38:56.928Z,6.70
2022-11-27T11:41:24.516Z,6.70
2022-11-27T11:44:01.883Z,6.70
2022-11-27T11:46:30.832Z,6.70
2022-11-27T11:49:06.810Z,6.70
2022-11-27T11:51:36.591Z,6.70
2022-11-27T11:54:15.959Z,6.80
2022-11-27T11:56:45.130Z,6.80
2022-11-27T11:59:30.616Z,6.80
2022-11-27T12:01:57.533Z,6.80
2022-11-27T12:04:27.483Z,6.90
2022-11-27T12:07:06.783Z,6.90
2022-11-27T12:09:33.868Z,6.90
2022-11-27T12:12:13.789Z,6.90
2022-11-27T12:14:46.209Z,6.90
2022-11-27T12:17:21.426Z,6.90
2022-11-27T12:19:48.362Z,7.00
2022-11-27T12:22:30.416Z,7.00
2022-11-27T12:25:15.832Z,7.00
2022-11-27T12:27:59.512Z,7.00
2022-11-27T12:30:32.866Z,7.00
2022-11-27T12:33:19.237Z,7.00
2022-11-27T12:36:06.779Z,7.00
2022-11-27T12:38:33.600Z,7.00
2022-11-27T12:41:09.791Z,7.00
2022-11-27T12:44:00.436Z,7.10
2022-11-27T12:46:34.033Z,7.10
2022-11-27T12:49:03.475Z,7.10
2022-11-27T12:51:37.229Z,7.10
2022-11-27T12:54:07.950Z,7.00
2022-11-27T12:56:45.984Z,7.10
2022-11-27T12:59:21.727Z,7.10
2022-11-27T13:01:54.167Z,7.10
2022-11-27T13:04:34.857Z,7.10
2022-11-27T13:07:21.226Z,7.10
2022-11-27T13:09:51.173Z,7.10
2022-11-27T13:12:22.492Z,7.10
2022-11-27T13:14:55.067Z,7.10
2022-11-27T13:17:22.014Z,7.10
2022-11-27T13:19:50.184Z,7.10
2022-11-27T13:22:27.636Z,7.10
2022-11-27T13:24:55.746Z,7.10
2022-11-27T13:27:25.816Z,7.10
2022-11-27T13:30:04.085Z,7.10
2022-11-27T13:32:41.261Z,7.10
2022-11-27T13:35:18.644Z,7.10
2022-11-27T13:37:47.716Z,7.10
2022-11-27T13:40:26.840Z,7.10
2022-11-27T13:42:58.278Z,7.10
2022-11-27T13:45:37.646Z,7.20
2022-11-27T13:48:23.530Z,7.20
2022-11-27T13:50:50.772Z,7.10
2022-11-27T13:53:17.630Z,7.20
2022-11-27T13:55:54.495Z,7.10
2022-11-27T13:58:28.090Z,7.10
2022-11-27T14:00:55.148Z,7.20
2022-11-27T14:03:24.125Z,7.20
2022-11-27T14:05:51.185Z,7.20
2022-11-27T14:08:21.273Z,7.20
2022-11-27T14:10:53.332Z,7.10
2022-11-27T14:13:23.537Z,7.10
2022-11-27T14:16:03.433Z,7.10
2022-11-27T14:18:30.755Z,7.10
2022-11-27T14:21:00.158Z,7.10
2022-11-27T14:23:34.626Z,7.10
2022-11-27T14:26:03.861Z,7.10
2022-11-27T14:28:30.907Z,7.10
2022-11-27T14:30:59.223Z,7.00
2022-11-27T14:33:27.104Z,7.10
2022-11-27T14:35:55.015Z,7.00
2022-11-27T14:38:22.710Z,7.00
2022-11-27T14:40:50.120Z,7.00
2022-11-27T14:43:18.054Z,7.00
2022-11-27T14:45:46.249Z,7.00
2022-11-27T14:48:18.357Z,7.00
2022-11-27T14:50:45.108Z,7.00
2022-11-27T14:53:11.993Z,7.00
2022-11-27T14:55:38.843Z,7.10
2022-11-27T14:58:05.988Z,7.10
2022-11-27T15:00:32.831Z,7.10
2022-11-27T15:03:10.066Z,7.10
2022-11-27T15:05:38.364Z,7.10
2022-11-27T15:08:09.051Z,7.10
2022-11-27T15:10:38.059Z,7.00
2022-11-27T15:13:06.056Z,7.00
2022-11-27T15:15:35.499Z,7.10
2022-11-27T15:18:04.258Z,7.00
2022-11-27T15:20:42.188Z,7.10
2022-11-27T15:23:35.569Z,7.00
2022-11-27T15:26:02.336Z,7.00
2022-11-27T15:28:35.925Z,7.00
2022-11-27T15:31:22.838Z,7.00
2022-11-27T15:33:59.182Z,7.00
2022-11-27T15:36:26.372Z,6.90
2022-11-27T15:39:04.196Z,7.00
2022-11-27T15:41:31.503Z,7.00
2022-11-27T15:43:58.639Z,7.00
2022-11-27T15:46:34.295Z,7.00
2022-11-27T15:49:06.969Z,7.00
2022-11-27T15:51:35.305Z,7.00
2022-11-27T15:54:02.057Z,7.00
2022-11-27T15:56:28.889Z,7.00
2022-11-27T15:58:55.641Z,7.00
2022-11-27T16:01:22.582Z,7.00
2022-11-27T16:03:49.315Z,7.00
2022-11-27T16:06:16.284Z,7.00
2022-11-27T16:08:43.059Z,7.00
2022-11-27T16:11:13.576Z,7.00
2022-11-27T16:13:40.444Z,7.00
2022-11-27T16:16:09.533Z,7.00
2022-11-27T16:18:36.751Z,6.90
2022-11-27T16:21:07.751Z,6.90
2022-11-27T16:23:35.646Z,7.00
2022-11-27T16:26:02.702Z,7.00
2022-11-27T16:28:30.275Z,7.00
2022-11-27T16:30:58.216Z,7.00
2022-11-27T16:33:31.644Z,7.00
2022-11-27T16:36:09.225Z,7.00
2022-11-27T16:38:36.500Z,7.00
2022-11-27T16:41:04.698Z,7.00
2022-11-27T16:43:35.928Z,7.00
2022-11-27T16:46:08.233Z,7.00
2022-11-27T16:48:36.302Z,7.00
2022-11-27T16:51:08.269Z,7.00
2022-11-27T16:53:38.858Z,7.00
2022-11-27T16:56:06.147Z,7.00
2022-11-27T16:58:36.741Z,6.90
2022-11-27T17:01:07.703Z,6.90
2022-11-27T17:03:34.981Z,7.00
2022-11-27T17:06:06.412Z,6.90
2022-11-27T17:08:33.152Z,7.00
2022-11-27T17:11:08.687Z,7.00
2022-11-27T17:13:36.168Z,7.00
2022-11-27T17:16:03.420Z,7.00
2022-11-27T17:18:30.502Z,7.00
2022-11-27T17:21:14.951Z,7.00
2022-11-27T17:23:43.176Z,7.00
2022-11-27T17:26:11.061Z,7.00
2022-11-27T17:28:37.874Z,7.00
2022-11-27T17:31:09.671Z,7.00
2022-11-27T17:33:36.570Z,7.00
2022-11-27T17:36:03.417Z,7.00
2022-11-27T17:38:30.480Z,7.00
2022-11-27T17:41:01.090Z,7.00
2022-11-27T17:43:30.355Z,7.00
2022-11-27T17:45:57.824Z,7.00
2022-11-27T17:48:24.747Z,6.90
2022-11-27T17:50:52.172Z,6.90
2022-11-27T17:53:19.137Z,6.90
2022-11-27T17:55:46.431Z,6.90
2022-11-27T17:58:13.196Z,6.90
2022-11-27T18:00:40.210Z,6.90
2022-11-27T18:03:07.581Z,6.90
2022-11-27T18:05:38.022Z,6.90
2022-11-27T18:08:05.178Z,6.90
2022-11-27T18:10:35.073Z,6.90
2022-11-27T18:13:02.663Z,6.90
2022-11-27T18:15:29.386Z,6.90
2022-11-27T18:17:56.114Z,6.90
2022-11-27T18:20:22.837Z,6.90
2022-11-27T18:22:49.615Z,6.80
2022-11-27T18:25:16.503Z,6.80
2022-11-27T18:27:43.281Z,6.80
2022-11-27T18:30:10.555Z,6.90
2022-11-27T18:32:37.364Z,6.90
2022-11-27T18:35:04.748Z,6.80
2022-11-27T18:37:31.628Z,6.90
2022-11-27T18:39:59.716Z,6.80
2022-11-27T18:42:26.846Z,6.80
2022-11-27T18:44:53.839Z,6.90
2022-11-27T18:47:20.749Z,6.80
2022-11-27T18:49:47.845Z,6.80
2022-11-27T18:52:14.627Z,6.80
2022-11-27T18:54:41.679Z,6.70
2022-11-27T18:57:08.577Z,6.70
2022-11-27T18:59:35.746Z,6.70
2022-11-27T19:02:03.241Z,6.70
2022-11-27T19:04:30.107Z,6.70
2022-11-27T19:06:57.028Z,6.70
2022-11-27T19:09:24.907Z,6.70
2022-11-27T19:11:52.938Z,6.70
2022-11-27T19:14:21.171Z,6.70
2022-11-27T19:16:48.573Z,6.80
2022-11-27T19:22:08.887Z,6.80
2022-11-27T19:24:37.277Z,6.80
2022-11-27T19:27:04.039Z,6.80
2022-11-27T19:29:30.879Z,6.80
2022-11-27T19:31:58.898Z,6.70
2022-11-27T19:34:26.102Z,6.70
2022-11-27T19:36:53.102Z,6.70
2022-11-27T19:39:20.045Z,6.60
2022-11-27T19:41:48.744Z,6.60
2022-11-27T19:44:17.393Z,6.60
2022-11-27T19:46:45.109Z,6.50
2022-11-27T19:49:13.862Z,6.50
2022-11-27T19:51:41.326Z,6.60
2022-11-27T19:54:10.930Z,6.60
2022-11-27T19:56:40.103Z,6.60
2022-11-27T19:59:07.248Z,6.60
2022-11-27T20:01:34.269Z,6.60
2022-11-27T20:04:03.199Z,6.60
2022-11-27T20:06:30.271Z,6.60
2022-11-27T20:09:01.575Z,6.60
2022-11-27T20:11:35.024Z,6.60
2022-11-27T20:14:04.406Z,6.50
2022-11-27T20:16:32.932Z,6.50
2022-11-27T20:19:01.393Z,6.50
2022-11-27T20:21:28.441Z,6.40
2022-11-27T20:23:55.216Z,6.50
2022-11-27T20:26:27.052Z,6.50
2022-11-27T20:28:54.365Z,6.50
2022-11-27T20:31:23.816Z,6.50
2022-11-27T20:33:51.772Z,6.50
2022-11-27T20:36:19.881Z,6.60
2022-11-27T20:38:46.746Z,6.60
2022-11-27T20:41:14.647Z,6.50
2022-11-27T20:43:41.629Z,6.60
2022-11-27T20:46:08.685Z,6.60
2022-11-27T20:48:35.779Z,6.60
2022-11-27T20:51:09.932Z,6.60
2022-11-27T20:53:37.681Z,6.60
2022-11-27T20:56:05.682Z,6.60
2022-11-27T20:58:36.609Z,6.60
2022-11-27T21:01:26.064Z,6.60
2022-11-27T21:03:54.765Z,6.70
2022-11-27T21:06:23.343Z,6.60
2022-11-27T21:08:50.494Z,6.60
2022-11-27T21:11:24.926Z,6.60
2022-11-27T21:13:56.827Z,6.60
2022-11-27T21:16:24.756Z,6.60
2022-11-27T21:18:52.374Z,6.50
2022-11-27T21:21:19.763Z,6.50
2022-11-27T21:23:46.640Z,6.50
2022-11-27T21:26:16.126Z,6.60
2022-11-27T21:28:52.380Z,6.50
2022-11-27T21:31:20.574Z,6.60
2022-11-27T21:33:48.398Z,6.60
2022-11-27T21:36:15.776Z,6.60
2022-11-27T21:38:42.722Z,6.60
2022-11-27T21:41:12.809Z,6.50
2022-11-27T21:43:43.255Z,6.50
2022-11-27T21:46:17.235Z,6.50
2022-11-27T21:48:47.917Z,6.50
2022-11-27T21:51:15.376Z,6.50
2022-11-27T21:53:43.204Z,6.60
2022-11-27T21:56:10.686Z,6.60
2022-11-27T21:58:37.905Z,6.50
2022-11-27T22:01:06.063Z,6.50
2022-11-27T22:03:33.171Z,6.50
2022-11-27T22:06:01.693Z,6.50
2022-11-27T22:08:29.119Z,6.50
2022-11-27T22:10:55.866Z,6.50
2022-11-27T22:13:23.296Z,6.50
2022-11-27T22:15:50.191Z,6.50
2022-11-27T22:18:17.217Z,6.50
2022-11-27T22:20:44.236Z,6.50
2022-11-27T22:23:11.576Z,6.50
2022-11-27T22:25:38.482Z,6.50
2022-11-27T22:28:05.474Z,6.60
2022-11-27T22:30:32.584Z,6.60
2022-11-27T22:32:59.639Z,6.60
2022-11-27T22:35:26.400Z,6.60
2022-11-27T22:37:53.587Z,6.60
2022-11-27T22:40:20.761Z,6.60
2022-11-27T22:42:48.668Z,6.60
2022-11-27T22:45:15.802Z,6.50
2022-11-27T22:47:42.719Z,6.50
2022-11-27T22:50:09.738Z,6.50
2022-11-27T22:52:36.614Z,6.40
2022-11-27T22:55:03.960Z,6.40
2022-11-27T22:57:33.635Z,6.40
2022-11-27T23:00:00.517Z,6.50
2022-11-27T23:02:27.439Z,6.50
2022-11-27T23:04:54.318Z,6.50
2022-11-27T23:07:24.977Z,6.50
2022-11-27T23:09:52.396Z,6.50
2022-11-27T23:12:19.136Z,6.50
2022-11-27T23:14:45.999Z,6.50
2022-11-27T23:17:12.729Z,6.60
2022-11-27T23:19:39.465Z,6.50
2022-11-27T23:22:06.219Z,6.50
2022-11-27T23:24:32.918Z,6.50
2022-11-27T23:26:59.666Z,6.50
2022-11-27T23:29:26.415Z,6.50
2022-11-27T23:31:53.384Z,6.50
2022-11-27T23:34:20.296Z,6.50
2022-11-27T23:36:47.069Z,6.50
2022-11-27T23:39:14.093Z,6.50
2022-11-27T23:41:41.297Z,6.50
2022-11-27T23:44:08.200Z,6.50
2022-11-27T23:46:35.092Z,6.50
2022-11-27T23:49:01.961Z,6.50
2022-11-27T23:51:30.292Z,6.50
2022-11-27T23:53:57.549Z,6.50
2022-11-27T23:56:26.101Z,6.50
2022-11-27T23:58:53.671Z,6.50
